createdAt,value
2022-09-05T00:01:27.503Z,101771.59
2022-09-05T00:04:23.616Z,101771.41
2022-09-05T00:06:58.641Z,101763.50
2022-09-05T00:09:39.473Z,101761.94
2022-09-05T00:12:08.444Z,101766.63
2022-09-05T00:15:17.537Z,101770.31
2022-09-05T00:18:35.329Z,101756.31
2022-09-05T00:23:29.262Z,101761.69
2022-09-05T00:24:26.687Z,101765.38
2022-09-05T00:26:28.612Z,101775.06
2022-09-05T00:29:04.630Z,101772.84
2022-09-05T00:31:53.775Z,101773.44
2022-09-05T00:34:47.429Z,101770.00
2022-09-05T00:37:27.433Z,101757.81
2022-09-05T00:40:17.824Z,101758.94
2022-09-05T00:42:49.041Z,101765.56
2022-09-05T00:45:19.354Z,101769.72
2022-09-05T00:47:49.906Z,101767.00
2022-09-05T00:50:23.571Z,101757.63
2022-09-05T00:53:06.532Z,101755.56
2022-09-05T00:55:40.957Z,101760.72
2022-09-05T00:58:34.589Z,101756.00
2022-09-05T01:01:20.669Z,101759.19
2022-09-05T01:03:58.905Z,101759.34
2022-09-05T01:06:33.825Z,101759.47
2022-09-05T01:09:11.268Z,101752.44
2022-09-05T01:11:50.212Z,101757.31
2022-09-05T01:14:29.195Z,101758.31
2022-09-05T01:17:09.925Z,101758.44
2022-09-05T01:19:46.412Z,101766.66
2022-09-05T01:22:34.815Z,101759.59
2022-09-05T01:25:16.451Z,101772.34
2022-09-05T01:29:13.299Z,101754.03
2022-09-05T01:30:43.189Z,101753.69
2022-09-05T01:33:23.566Z,101756.38
2022-09-05T01:36:15.718Z,101752.31
2022-09-05T01:38:55.321Z,101758.00
2022-09-05T01:41:42.369Z,101761.66
2022-09-05T01:44:13.600Z,101749.44
2022-09-05T01:46:45.848Z,101752.69
2022-09-05T01:49:25.067Z,101748.03
2022-09-05T01:52:19.811Z,101742.53
2022-09-05T01:54:58.734Z,101745.66
2022-09-05T01:57:32.822Z,101751.03
2022-09-05T02:00:06.834Z,101750.72
2022-09-05T02:02:50.743Z,101748.16
2022-09-05T02:05:47.730Z,101747.84
2022-09-05T02:08:57.049Z,101746.75
2022-09-05T02:11:41.949Z,101755.69
2022-09-05T02:14:27.058Z,101749.44
2022-09-05T02:17:44.762Z,101742.53
2022-09-05T02:20:11.812Z,101746.00
2022-09-05T02:22:44.245Z,101748.84
2022-09-05T02:26:00.207Z,101760.72
2022-09-05T02:28:12.541Z,101750.78
2022-09-05T02:31:06.758Z,101757.81
2022-09-05T02:33:35.381Z,101766.31
2022-09-05T02:36:08.222Z,101751.41
2022-09-05T02:40:59.917Z,101759.59
2022-09-05T02:45:08.135Z,101751.34
2022-09-05T02:45:12.794Z,101752.34
2022-09-05T02:47:22.454Z,101757.16
2022-09-05T02:52:29.185Z,101751.94
2022-09-05T02:57:30.501Z,101757.78
2022-09-05T02:57:41.944Z,101756.94
2022-09-05T02:59:16.308Z,101747.53
2022-09-05T03:01:59.441Z,101756.56
2022-09-05T03:04:38.927Z,101749.53
2022-09-05T03:07:30.869Z,101748.38
2022-09-05T03:10:11.723Z,101761.91
2022-09-05T03:13:12.209Z,101762.91
2022-09-05T03:16:12.655Z,101750.97
2022-09-05T03:19:19.941Z,101759.16
2022-09-05T03:22:28.901Z,101752.41
2022-09-05T03:25:11.466Z,101757.19
2022-09-05T03:28:03.501Z,101760.75
2022-09-05T03:30:34.734Z,101764.06
2022-09-05T03:33:16.542Z,101763.81
2022-09-05T03:36:08.937Z,101767.91
2022-09-05T03:38:54.690Z,101768.34
2022-09-05T03:41:40.074Z,101770.63
2022-09-05T03:44:16.940Z,101766.72
2022-09-05T03:46:51.735Z,101771.38
2022-09-05T03:50:20.808Z,101768.97
2022-09-05T03:54:06.990Z,101770.97
2022-09-05T03:57:15.326Z,101776.63
2022-09-05T03:58:18.049Z,101771.56
2022-09-05T04:00:47.717Z,101776.22
2022-09-05T04:08:06.745Z,101772.84
2022-09-05T04:08:17.041Z,101770.44
2022-09-05T04:08:58.264Z,101780.44
2022-09-05T04:11:29.966Z,101776.94
2022-09-05T04:13:59.167Z,101782.44
2022-09-05T04:16:27.984Z,101779.78
2022-09-05T04:18:56.132Z,101780.75
2022-09-05T04:21:24.804Z,101779.06
2022-09-05T04:23:53.975Z,101785.25
2022-09-05T04:26:23.402Z,101778.22
2022-09-05T04:29:02.729Z,101788.91
2022-09-05T04:31:32.080Z,101781.88
2022-09-05T04:34:01.623Z,101785.38
2022-09-05T04:36:29.533Z,101774.84
2022-09-05T04:39:07.561Z,101784.84
2022-09-05T04:41:39.865Z,101777.94
2022-09-05T04:44:09.613Z,101780.72
2022-09-05T04:46:48.434Z,101787.91
2022-09-05T04:49:16.970Z,101789.91
2022-09-05T04:51:59.939Z,101783.84
2022-09-05T04:54:33.501Z,101788.50
2022-09-05T04:57:13.778Z,101787.78
2022-09-05T05:06:03.697Z,101795.13
2022-09-05T05:06:18.133Z,101797.94
2022-09-05T05:06:20.306Z,101798.09
2022-09-05T05:08:13.649Z,101799.06
2022-09-05T05:11:52.808Z,101803.00
2022-09-05T05:17:57.527Z,101799.66
2022-09-05T05:18:11.661Z,101797.09
2022-09-05T05:19:18.664Z,101810.59
2022-09-05T05:21:50.020Z,101808.09
2022-09-05T05:24:21.676Z,101810.06
2022-09-05T05:26:56.689Z,101816.50
2022-09-05T05:29:25.120Z,101811.31
2022-09-05T05:31:54.497Z,101818.50
2022-09-05T05:34:24.606Z,101809.78
2022-09-05T05:36:58.467Z,101817.94
2022-09-05T05:39:28.602Z,101822.31
2022-09-05T05:41:56.393Z,101820.47
2022-09-05T05:44:26.181Z,101823.97
2022-09-05T05:46:57.020Z,101816.81
2022-09-05T05:49:27.430Z,101817.50
2022-09-05T05:52:01.386Z,101814.84
2022-09-05T05:54:32.277Z,101821.84
2022-09-05T05:57:15.210Z,101820.91
2022-09-05T05:59:56.470Z,101811.88
2022-09-05T06:03:12.017Z,101823.28
2022-09-05T06:05:57.625Z,101825.94
2022-09-05T06:11:54.349Z,101818.63
2022-09-05T06:14:58.418Z,101819.59
2022-09-05T06:14:58.877Z,101829.72
2022-09-05T06:17:27.985Z,101826.34
2022-09-05T06:22:05.406Z,101826.88
2022-09-05T06:23:18.990Z,101821.28
2022-09-05T06:26:07.778Z,101820.69
2022-09-05T06:28:37.948Z,101818.44
2022-09-05T06:31:28.900Z,101818.88
2022-09-05T06:34:00.538Z,101825.47
2022-09-05T06:36:33.310Z,101819.66
2022-09-05T06:39:06.349Z,101822.75
2022-09-05T06:41:37.110Z,101816.13
2022-09-05T06:44:13.582Z,101816.53
2022-09-05T06:46:54.949Z,101813.13
2022-09-05T06:49:35.833Z,101823.38
2022-09-05T06:52:30.368Z,101817.47
2022-09-05T06:55:12.856Z,101823.03
2022-09-05T06:57:47.278Z,101829.47
2022-09-05T07:00:22.677Z,101824.38
2022-09-05T07:02:59.342Z,101829.13
2022-09-05T07:05:39.700Z,101829.38
2022-09-05T07:08:35.910Z,101831.47
2022-09-05T07:11:16.251Z,101832.72
2022-09-05T07:13:49.241Z,101829.28
2022-09-05T07:16:17.217Z,101832.03
2022-09-05T07:19:05.975Z,101823.25
2022-09-05T07:21:36.163Z,101833.34
2022-09-05T07:24:08.667Z,101831.75
2022-09-05T07:26:52.652Z,101838.19
2022-09-05T07:29:24.344Z,101841.94
2022-09-05T07:31:55.633Z,101852.03
2022-09-05T07:34:23.758Z,101843.22
2022-09-05T07:37:13.766Z,101847.66
2022-09-05T07:39:40.453Z,101849.28
2022-09-05T07:42:08.474Z,101852.72
2022-09-05T07:44:37.416Z,101852.44
2022-09-05T07:47:07.068Z,101854.88
2022-09-05T07:49:35.119Z,101846.56
2022-09-05T07:56:53.145Z,101848.38
2022-09-05T07:56:56.491Z,101846.97
2022-09-05T07:57:51.057Z,101847.56
2022-09-05T08:00:26.728Z,101850.31
2022-09-05T08:02:57.207Z,101851.34
2022-09-05T08:05:34.401Z,101846.50
2022-09-05T08:08:03.141Z,101853.56
2022-09-05T08:11:14.487Z,101849.88
2022-09-05T08:13:24.379Z,101854.59
2022-09-05T08:16:11.171Z,101844.53
2022-09-05T08:18:42.788Z,101843.56
2022-09-05T08:21:12.074Z,101841.22
2022-09-05T08:23:48.913Z,101838.91
2022-09-05T08:26:17.017Z,101837.06
2022-09-05T08:28:53.550Z,101833.91
2022-09-05T08:31:23.067Z,101845.63
2022-09-05T08:33:51.258Z,101843.13
2022-09-05T08:36:20.479Z,101845.00
2022-09-05T08:38:47.937Z,101837.78
2022-09-05T08:41:16.596Z,101839.31
2022-09-05T08:46:37.131Z,101835.63
2022-09-05T08:46:49.211Z,101833.56
2022-09-05T08:49:37.976Z,101832.41
2022-09-05T08:52:08.884Z,101825.63
2022-09-05T08:54:36.801Z,101817.06
2022-09-05T08:57:07.625Z,101823.22
2022-09-05T09:00:02.722Z,101821.50
2022-09-05T09:02:48.313Z,101814.53
2022-09-05T09:05:19.665Z,101813.13
2022-09-05T09:07:54.231Z,101812.53
2022-09-05T09:10:35.873Z,101797.03
2022-09-05T09:13:06.566Z,101800.16
2022-09-05T09:15:34.728Z,101798.22
2022-09-05T09:18:05.681Z,101799.69
2022-09-05T09:20:45.040Z,101793.66
2022-09-05T09:23:32.502Z,101795.75
2022-09-05T09:26:03.874Z,101791.63
2022-09-05T09:28:49.556Z,101799.63
2022-09-05T09:31:29.936Z,101798.03
2022-09-05T09:34:01.081Z,101788.00
2022-09-05T09:36:43.730Z,101797.31
2022-09-05T09:39:38.590Z,101796.84
2022-09-05T09:42:05.674Z,101793.69
2022-09-05T09:44:55.011Z,101788.22
2022-09-05T09:47:22.846Z,101790.09
2022-09-05T09:49:59.137Z,101788.59
2022-09-05T09:52:38.443Z,101787.75
2022-09-05T09:55:23.569Z,101783.47
2022-09-05T09:58:15.859Z,101780.41
2022-09-05T10:00:45.799Z,101786.91
2022-09-05T10:10:09.976Z,101779.16
2022-09-05T10:10:38.860Z,101778.00
2022-09-05T10:10:45.166Z,101775.28
2022-09-05T10:12:22.400Z,101766.59
2022-09-05T10:15:15.153Z,101764.94
2022-09-05T10:17:53.326Z,101765.44
2022-09-05T10:20:29.194Z,101758.81
2022-09-05T10:23:15.592Z,101753.50
2022-09-05T10:26:02.001Z,101751.31
2022-09-05T10:28:34.661Z,101754.53
2022-09-05T10:34:42.463Z,101755.03
2022-09-05T10:35:11.370Z,101740.28
2022-09-05T10:36:52.095Z,101745.25
2022-09-05T10:39:23.149Z,101744.88
2022-09-05T10:41:55.162Z,101742.66
2022-09-05T10:44:31.594Z,101745.22
2022-09-05T10:47:09.246Z,101738.22
2022-09-05T10:49:43.553Z,101736.19
2022-09-05T10:52:18.708Z,101739.97
2022-09-05T10:55:14.714Z,101734.31
2022-09-05T10:57:54.339Z,101739.97
2022-09-05T11:02:21.116Z,101738.53
2022-09-05T11:03:31.053Z,101738.53
2022-09-05T11:06:09.097Z,101736.22
2022-09-05T11:08:42.838Z,101737.03
2022-09-05T11:11:25.985Z,101730.13
2022-09-05T11:14:07.227Z,101737.81
2022-09-05T11:17:51.879Z,101727.00
2022-09-05T11:20:35.990Z,101724.50
2022-09-05T11:23:06.023Z,101721.59
2022-09-05T11:25:39.755Z,101720.56
2022-09-05T11:28:14.593Z,101721.97
2022-09-05T11:30:43.882Z,101718.19
2022-09-05T11:39:45.992Z,101711.94
2022-09-05T11:39:50.488Z,101704.00
2022-09-05T11:39:57.509Z,101711.28
2022-09-05T11:42:42.586Z,101709.47
2022-09-05T11:45:20.770Z,101698.72
2022-09-05T11:48:15.911Z,101707.06
2022-09-05T11:51:02.423Z,101705.03
2022-09-05T11:54:14.689Z,101704.84
2022-09-05T11:57:02.151Z,101690.44
2022-09-05T12:00:10.718Z,101688.13
2022-09-05T12:03:38.504Z,101694.81
2022-09-05T12:06:48.060Z,101699.59
2022-09-05T12:09:27.502Z,101690.84
2022-09-05T12:12:18.618Z,101677.50
2022-09-05T12:15:12.203Z,101691.88
2022-09-05T12:17:47.005Z,101678.50
2022-09-05T12:20:21.932Z,101680.97
2022-09-05T12:22:54.654Z,101675.28
2022-09-05T12:27:42.119Z,101674.38
2022-09-05T12:29:33.602Z,101674.81
2022-09-05T12:32:49.501Z,101677.69
2022-09-05T12:36:04.422Z,101674.31
2022-09-05T12:40:43.337Z,101672.09
2022-09-05T12:41:35.078Z,101665.34
2022-09-05T12:44:19.292Z,101670.16
2022-09-05T12:46:24.762Z,101674.84
2022-09-05T12:48:56.849Z,101672.94
2022-09-05T12:51:46.065Z,101674.94
2022-09-05T12:54:33.589Z,101678.19
2022-09-05T13:00:43.898Z,101676.56
2022-09-05T13:03:06.705Z,101690.97
2022-09-05T13:05:46.181Z,101683.75
2022-09-05T13:08:21.495Z,101680.06
2022-09-05T13:13:48.581Z,101679.34
2022-09-05T13:14:59.973Z,101673.69
2022-09-05T13:16:32.532Z,101664.94
2022-09-05T13:19:07.605Z,101650.94
2022-09-05T13:21:39.519Z,101663.66
2022-09-05T13:24:12.101Z,101656.56
2022-09-05T13:26:43.068Z,101662.78
2022-09-05T13:29:14.882Z,101660.78
2022-09-05T13:38:00.108Z,101657.59
2022-09-05T13:38:06.613Z,101645.22
2022-09-05T13:38:17.350Z,101652.88
2022-09-05T13:40:39.511Z,101643.06
2022-09-05T13:43:10.545Z,101638.72
2022-09-05T13:46:03.445Z,101639.22
2022-09-05T13:51:36.517Z,101639.06
2022-09-05T13:54:32.954Z,101635.09
2022-09-05T13:57:16.385Z,101635.44
2022-09-05T14:00:53.159Z,101620.28
2022-09-05T14:03:45.619Z,101624.22
2022-09-05T14:06:47.681Z,101615.63
2022-09-05T14:09:42.103Z,101613.63
2022-09-05T14:12:16.176Z,101615.38
2022-09-05T14:17:50.779Z,101612.75
2022-09-05T14:20:36.520Z,101617.44
2022-09-05T14:23:07.994Z,101607.00
2022-09-05T14:25:40.326Z,101612.66
2022-09-05T14:28:13.865Z,101613.06
2022-09-05T14:33:01.032Z,101608.03
2022-09-05T14:37:39.201Z,101598.97
2022-09-05T14:37:48.610Z,101601.97
2022-09-05T14:40:30.567Z,101599.53
2022-09-05T14:43:27.358Z,101599.94
2022-09-05T14:46:19.359Z,101595.34
2022-09-05T14:49:18.317Z,101601.72
2022-09-05T14:51:47.682Z,101599.44
2022-09-05T15:01:53.393Z,101592.78
2022-09-05T15:02:42.985Z,101596.34
2022-09-05T15:03:03.735Z,101596.34
2022-09-05T15:05:41.170Z,101589.81
2022-09-05T15:09:43.491Z,101585.88
2022-09-05T15:12:19.834Z,101572.66
2022-09-05T15:13:52.950Z,101578.41
2022-09-05T15:16:24.028Z,101575.63
2022-09-05T15:18:53.242Z,101572.72
2022-09-05T15:21:33.073Z,101574.00
2022-09-05T15:24:07.894Z,101575.28
2022-09-05T15:26:52.732Z,101568.59
2022-09-05T15:29:23.632Z,101569.78
2022-09-05T15:32:07.604Z,101568.09
2022-09-05T15:34:38.361Z,101570.19
2022-09-05T15:37:22.910Z,101567.22
2022-09-05T15:40:01.771Z,101565.94
2022-09-05T15:42:31.657Z,101571.81
2022-09-05T15:45:17.028Z,101566.56
2022-09-05T15:47:47.777Z,101569.53
2022-09-05T15:50:22.174Z,101562.59
2022-09-05T15:52:55.616Z,101559.28
2022-09-05T15:55:25.229Z,101566.81
2022-09-05T15:57:55.306Z,101566.25
2022-09-05T16:00:42.086Z,101566.50
2022-09-05T16:04:56.593Z,101558.00
2022-09-05T16:10:39.842Z,101560.75
2022-09-05T16:10:48.236Z,101558.56
2022-09-05T16:14:36.517Z,101551.59
2022-09-05T16:23:12.237Z,101553.66
2022-09-05T16:23:28.262Z,101555.75
2022-09-05T16:23:29.520Z,101553.69
2022-09-05T16:25:57.311Z,101550.38
2022-09-05T16:28:26.813Z,101544.75
2022-09-05T16:31:01.152Z,101550.81
2022-09-05T16:33:31.487Z,101542.13
2022-09-05T16:36:03.279Z,101541.28
2022-09-05T16:38:48.803Z,101534.63
2022-09-05T16:41:24.069Z,101533.84
2022-09-05T16:43:54.430Z,101529.28
2022-09-05T16:46:23.761Z,101528.00
2022-09-05T16:48:54.865Z,101529.50
2022-09-05T16:51:35.914Z,101521.75
2022-09-05T16:54:10.990Z,101526.19
2022-09-05T16:56:41.150Z,101524.94
2022-09-05T16:59:11.606Z,101520.78
2022-09-05T17:01:54.604Z,101521.00
2022-09-05T17:04:26.993Z,101518.94
2022-09-05T17:06:58.871Z,101513.94
2022-09-05T17:09:27.587Z,101508.94
2022-09-05T17:12:01.253Z,101512.69
2022-09-05T17:14:34.250Z,101507.72
2022-09-05T17:17:35.979Z,101508.13
2022-09-05T17:20:06.139Z,101508.78
2022-09-05T17:24:45.188Z,101504.59
2022-09-05T17:29:25.496Z,101502.75
2022-09-05T17:29:32.961Z,101500.47
2022-09-05T17:31:55.186Z,101493.16
2022-09-05T17:34:49.986Z,101493.59
2022-09-05T17:37:39.179Z,101492.31
2022-09-05T17:40:25.131Z,101497.56
2022-09-05T17:42:56.495Z,101498.41
2022-09-05T17:45:26.851Z,101502.78
2022-09-05T17:47:57.554Z,101503.22
2022-09-05T17:50:50.995Z,101501.13
2022-09-05T17:53:27.017Z,101506.75
2022-09-05T17:56:13.389Z,101501.16
2022-09-05T17:59:02.577Z,101507.41
2022-09-05T18:01:32.329Z,101511.16
2022-09-05T18:04:08.479Z,101506.97
2022-09-05T18:06:54.066Z,101504.44
2022-09-05T18:10:12.373Z,101503.59
2022-09-05T18:13:31.343Z,101500.09
2022-09-05T18:16:10.925Z,101492.78
2022-09-05T18:19:27.584Z,101496.94
2022-09-05T18:21:49.965Z,101499.44
2022-09-05T18:24:24.289Z,101497.56
2022-09-05T18:26:56.137Z,101501.47
2022-09-05T18:29:58.585Z,101505.88
2022-09-05T18:33:53.361Z,101503.97
2022-09-05T18:36:32.235Z,101501.25
2022-09-05T18:39:42.056Z,101513.06
2022-09-05T18:42:33.246Z,101509.06
2022-09-05T18:45:15.234Z,101508.03
2022-09-05T18:47:51.108Z,101506.13
2022-09-05T18:50:27.922Z,101512.97
2022-09-05T18:53:08.735Z,101502.78
2022-09-05T18:56:13.599Z,101512.53
2022-09-05T18:58:34.258Z,101516.69
2022-09-05T19:01:17.236Z,101511.84
2022-09-05T19:03:46.013Z,101512.66
2022-09-05T19:06:36.469Z,101512.03
2022-09-05T19:09:07.890Z,101515.53
2022-09-05T19:11:38.761Z,101518.63
2022-09-05T19:14:33.250Z,101513.19
2022-09-05T19:17:07.496Z,101514.78
2022-09-05T19:20:32.052Z,101511.81
2022-09-05T19:23:09.654Z,101505.94
2022-09-05T19:25:42.168Z,101512.97
2022-09-05T19:35:24.335Z,101505.06
2022-09-05T19:37:06.454Z,101503.97
2022-09-05T19:37:11.016Z,101500.44
2022-09-05T19:37:35.476Z,101510.13
2022-09-05T19:42:14.358Z,101508.22
2022-09-05T19:47:36.819Z,101497.38
2022-09-05T19:47:45.336Z,101502.38
2022-09-05T19:50:55.565Z,101512.72
2022-09-05T19:53:23.408Z,101513.13
2022-09-05T19:55:51.428Z,101512.09
2022-09-05T19:58:22.594Z,101521.22
2022-09-05T20:01:02.389Z,101512.47
2022-09-05T20:03:38.818Z,101511.84
2022-09-05T20:06:29.369Z,101513.88
2022-09-05T20:09:09.984Z,101501.78
2022-09-05T20:11:45.187Z,101515.03
2022-09-05T20:14:22.412Z,101504.59
2022-09-05T20:16:50.769Z,101506.03
2022-09-05T20:19:29.561Z,101499.97
2022-09-05T20:21:59.267Z,101497.69
2022-09-05T20:24:39.025Z,101488.94
2022-09-05T20:27:06.873Z,101499.75
2022-09-05T20:29:54.260Z,101497.03
2022-09-05T20:32:38.850Z,101499.13
2022-09-05T20:36:56.317Z,101499.28
2022-09-05T20:43:22.843Z,101503.84
2022-09-05T20:43:24.765Z,101504.25
2022-09-05T20:44:17.360Z,101497.81
2022-09-05T20:51:35.141Z,101504.25
2022-09-05T20:54:14.691Z,101503.59
2022-09-05T20:54:20.747Z,101505.28
2022-09-05T20:55:39.903Z,101503.78
2022-09-05T20:58:11.186Z,101503.97
2022-09-05T21:00:40.042Z,101491.50
2022-09-05T21:03:09.204Z,101489.84
2022-09-05T21:05:38.945Z,101496.91
2022-09-05T21:08:34.237Z,101500.63
2022-09-05T21:11:03.313Z,101498.13
2022-09-05T21:13:33.196Z,101500.63
2022-09-05T21:16:01.574Z,101501.66
2022-09-05T21:18:33.394Z,101502.50
2022-09-05T21:21:27.776Z,101501.66
2022-09-05T21:24:17.587Z,101498.13
2022-09-05T21:26:47.608Z,101501.41
2022-09-05T21:29:17.538Z,101497.66
2022-09-05T21:31:47.571Z,101497.66
2022-09-05T21:34:24.620Z,101488.56
2022-09-05T21:37:07.082Z,101491.00
2022-09-05T21:39:40.158Z,101492.66
2022-09-05T21:42:34.250Z,101494.91
2022-09-05T21:47:42.996Z,101493.06
2022-09-05T21:47:53.799Z,101489.72
2022-09-05T21:50:30.539Z,101490.72
2022-09-05T21:53:43.223Z,101478.91
2022-09-05T21:59:19.874Z,101482.66
2022-09-05T21:59:26.443Z,101471.22
2022-09-05T22:01:37.503Z,101473.91
2022-09-05T22:04:15.225Z,101472.25
2022-09-05T22:06:48.354Z,101469.56
2022-09-05T22:09:17.109Z,101470.59
2022-09-05T22:11:51.114Z,101469.56
2022-09-05T22:14:19.471Z,101478.00
2022-09-05T22:16:50.238Z,101466.19
2022-09-05T22:19:22.774Z,101453.94
2022-09-05T22:21:51.455Z,101459.31
2022-09-05T22:24:19.823Z,101457.66
2022-09-05T22:27:10.945Z,101447.06
2022-09-05T22:29:40.754Z,101446.81
2022-09-05T22:32:08.820Z,101448.47
2022-09-05T22:34:36.430Z,101440.56
2022-09-05T22:37:04.035Z,101445.13
2022-09-05T22:39:37.828Z,101436.41
2022-09-05T22:42:10.852Z,101435.53
2022-09-05T22:44:39.164Z,101429.69
2022-09-05T22:47:07.068Z,101431.94
2022-09-05T22:49:36.210Z,101433.38
2022-09-05T22:52:05.152Z,101431.97
2022-09-05T22:54:32.841Z,101435.13
2022-09-05T22:57:00.489Z,101424.53
2022-09-05T22:59:29.691Z,101429.94
2022-09-05T23:01:57.411Z,101434.88
2022-09-05T23:04:25.884Z,101427.16
2022-09-05T23:06:54.009Z,101416.97
2022-09-05T23:09:21.745Z,101413.22
2022-09-05T23:11:49.421Z,101414.44
2022-09-05T23:14:17.224Z,101417.31
2022-09-05T23:16:46.180Z,101410.25
2022-09-05T23:19:13.833Z,101412.31
2022-09-05T23:21:41.711Z,101409.81
2022-09-05T23:24:09.345Z,101414.38
2022-09-05T23:26:36.963Z,101408.31
2022-09-05T23:29:04.841Z,101399.59
2022-09-05T23:31:32.592Z,101406.00
2022-09-05T23:34:01.578Z,101406.00
2022-09-05T23:36:29.287Z,101416.31
2022-09-05T23:38:58.350Z,101421.72
2022-09-05T23:41:26.129Z,101425.81
2022-09-05T23:43:53.785Z,101432.44
2022-09-05T23:46:21.544Z,101431.94
2022-09-05T23:48:49.257Z,101424.25
2022-09-05T23:51:18.239Z,101437.63
2022-09-05T23:53:46.752Z,101432.03
2022-09-05T23:56:14.331Z,101441.50
2022-09-05T23:58:41.980Z,101439.56
